createdAt,value
2023-04-13T00:01:11.529Z,18.90
2023-04-13T00:03:39.605Z,18.13
2023-04-13T00:06:11.026Z,18.15
2023-04-13T00:08:38.416Z,19.10
2023-04-13T00:11:06.637Z,17.55
2023-04-13T00:13:40.912Z,17.42
2023-04-13T00:16:09.796Z,18.17
2023-04-13T00:18:36.911Z,18.27
2023-04-13T00:21:04.001Z,19.67
2023-04-13T00:23:32.092Z,19.48
2023-04-13T00:26:08.989Z,20.65
2023-04-13T00:28:35.842Z,20.27
2023-04-13T00:31:02.868Z,21.27
2023-04-13T00:33:29.807Z,21.30
2023-04-13T00:35:56.883Z,19.83
2023-04-13T00:38:24.237Z,19.30
2023-04-13T00:40:53.327Z,18.25
2023-04-13T00:43:20.135Z,18.38
2023-04-13T00:45:47.801Z,19.50
2023-04-13T00:48:14.844Z,19.88
2023-04-13T00:50:42.334Z,20.17
2023-04-13T00:53:13.263Z,20.10
2023-04-13T00:55:42.335Z,20.42
2023-04-13T00:58:09.435Z,19.70
2023-04-13T01:00:39.387Z,18.73
2023-04-13T01:03:07.033Z,19.67
2023-04-13T01:05:39.742Z,19.15
2023-04-13T01:08:36.977Z,19.40
2023-04-13T01:11:19.918Z,18.73
2023-04-13T01:13:55.937Z,18.67
2023-04-13T01:16:33.198Z,18.92
2023-04-13T01:19:00.381Z,19.38
2023-04-13T01:21:29.245Z,18.40
2023-04-13T01:24:29.837Z,18.38
2023-04-13T01:27:17.925Z,19.20
2023-04-13T01:29:45.514Z,19.23
2023-04-13T01:32:15.058Z,19.95
2023-04-13T01:34:41.956Z,19.88
2023-04-13T01:37:09.891Z,21.15
2023-04-13T01:39:42.198Z,21.33
2023-04-13T01:42:09.245Z,20.98
2023-04-13T01:44:36.586Z,20.95
2023-04-13T01:47:18.024Z,20.83
2023-04-13T01:50:25.752Z,21.13
2023-04-13T01:52:54.526Z,20.25
2023-04-13T01:55:23.105Z,19.92
2023-04-13T01:57:56.074Z,20.42
2023-04-13T02:00:22.993Z,20.90
2023-04-13T02:02:49.963Z,20.25
2023-04-13T02:05:16.975Z,20.25
2023-04-13T02:07:47.419Z,19.88
2023-04-13T02:10:14.290Z,20.27
2023-04-13T02:12:41.810Z,20.80
2023-04-13T02:15:09.537Z,21.20
2023-04-13T02:17:36.930Z,20.52
2023-04-13T02:20:11.241Z,21.50
2023-04-13T02:22:41.651Z,20.40
2023-04-13T02:25:11.550Z,20.02
2023-04-13T02:27:39.498Z,19.73
2023-04-13T02:30:07.764Z,20.27
2023-04-13T02:32:39.724Z,20.67
2023-04-13T02:35:11.313Z,20.42
2023-04-13T02:37:41.982Z,21.10
2023-04-13T02:40:12.652Z,20.23
2023-04-13T02:42:39.703Z,21.17
2023-04-13T02:45:07.899Z,20.65
2023-04-13T02:47:35.331Z,20.00
2023-04-13T02:50:02.360Z,19.90
2023-04-13T02:52:31.539Z,20.40
2023-04-13T02:54:58.975Z,20.80
2023-04-13T02:57:25.971Z,20.35
2023-04-13T02:59:53.320Z,21.00
2023-04-13T03:02:20.826Z,19.67
2023-04-13T03:04:51.208Z,20.45
2023-04-13T03:07:18.760Z,20.13
2023-04-13T03:09:45.719Z,19.83
2023-04-13T03:12:12.551Z,20.65
2023-04-13T03:14:41.638Z,21.40
2023-04-13T03:17:08.544Z,19.92
2023-04-13T03:19:36.198Z,22.13
2023-04-13T03:22:03.120Z,21.65
2023-04-13T03:24:30.644Z,21.23
2023-04-13T03:26:58.123Z,21.88
2023-04-13T03:29:25.017Z,21.40
2023-04-13T03:31:52.103Z,21.25
2023-04-13T03:34:19.126Z,19.55
2023-04-13T03:36:46.543Z,19.08
2023-04-13T03:39:13.504Z,20.15
2023-04-13T03:41:40.572Z,21.48
2023-04-13T03:44:08.255Z,20.58
2023-04-13T03:46:37.649Z,20.30
2023-04-13T03:49:08.589Z,19.58
2023-04-13T03:51:36.535Z,19.85
2023-04-13T03:54:04.203Z,19.90
2023-04-13T03:56:31.115Z,20.48
2023-04-13T03:58:57.946Z,20.33
2023-04-13T04:01:24.916Z,20.35
2023-04-13T04:03:55.988Z,21.55
2023-04-13T04:06:23.944Z,21.45
2023-04-13T04:08:53.640Z,19.38
2023-04-13T04:11:22.299Z,20.50
2023-04-13T04:13:49.230Z,21.02
2023-04-13T04:16:16.769Z,19.65
2023-04-13T04:18:46.171Z,20.63
2023-04-13T04:21:15.723Z,19.40
2023-04-13T04:23:42.636Z,20.58
2023-04-13T04:26:09.435Z,19.98
2023-04-13T04:28:45.069Z,19.80
2023-04-13T04:31:12.059Z,20.77
2023-04-13T04:33:38.975Z,20.30
2023-04-13T04:36:14.384Z,21.02
2023-04-13T04:38:41.563Z,21.40
2023-04-13T04:41:08.819Z,20.73
2023-04-13T04:43:35.896Z,20.15
2023-04-13T04:46:04.733Z,19.50
2023-04-13T04:48:31.877Z,20.40
2023-04-13T04:51:00.090Z,19.85
2023-04-13T04:53:27.258Z,18.95
2023-04-13T04:55:54.318Z,20.02
2023-04-13T04:58:21.208Z,19.85
2023-04-13T05:00:49.842Z,20.38
2023-04-13T05:03:19.451Z,18.83
2023-04-13T05:05:46.494Z,20.15
2023-04-13T05:08:13.322Z,19.75
2023-04-13T05:10:46.103Z,20.00
2023-04-13T05:13:13.164Z,18.63
2023-04-13T05:15:40.099Z,19.27
2023-04-13T05:18:07.068Z,19.00
2023-04-13T05:20:34.720Z,18.60
2023-04-13T05:23:01.911Z,18.73
2023-04-13T05:25:29.213Z,20.17
2023-04-13T05:27:56.351Z,19.40
2023-04-13T05:30:23.301Z,18.67
2023-04-13T05:32:50.310Z,18.60
2023-04-13T05:35:17.148Z,18.63
2023-04-13T05:37:44.617Z,20.17
2023-04-13T05:40:15.192Z,18.70
2023-04-13T05:42:43.525Z,18.25
2023-04-13T05:45:10.890Z,18.70
2023-04-13T05:47:38.662Z,19.48
2023-04-13T05:50:06.588Z,18.55
2023-04-13T05:52:33.360Z,18.58
2023-04-13T05:55:01.333Z,18.55
2023-04-13T05:57:28.186Z,20.15
2023-04-13T05:59:55.376Z,18.83
2023-04-13T06:02:22.791Z,17.92
2023-04-13T06:04:55.195Z,19.75
2023-04-13T06:07:22.819Z,18.25
2023-04-13T06:09:49.766Z,19.33
2023-04-13T06:12:18.289Z,19.67
2023-04-13T06:14:45.260Z,19.95
2023-04-13T06:17:12.192Z,20.02
2023-04-13T06:19:39.034Z,20.77
2023-04-13T06:22:05.897Z,19.02
2023-04-13T06:24:32.740Z,18.77
2023-04-13T06:27:00.088Z,17.67
2023-04-13T06:29:27.257Z,17.73
2023-04-13T06:31:54.617Z,16.75
2023-04-13T06:34:21.454Z,17.60
2023-04-13T06:36:48.399Z,18.05
2023-04-13T06:39:15.878Z,17.73
2023-04-13T06:41:42.955Z,16.05
2023-04-13T06:44:10.000Z,17.40
2023-04-13T06:46:36.836Z,16.23
2023-04-13T06:49:04.920Z,17.05
2023-04-13T06:51:32.144Z,16.48
2023-04-13T06:53:59.581Z,16.25
2023-04-13T06:56:26.471Z,16.45
2023-04-13T06:58:53.598Z,18.42
2023-04-13T07:01:21.737Z,17.50
2023-04-13T07:03:48.886Z,19.15
2023-04-13T07:06:16.107Z,19.33
2023-04-13T07:08:42.909Z,18.25
2023-04-13T07:11:10.245Z,18.05
2023-04-13T07:13:37.653Z,18.73
2023-04-13T07:16:05.148Z,17.83
2023-04-13T07:18:32.219Z,17.77
2023-04-13T07:21:01.766Z,17.00
2023-04-13T07:23:30.853Z,16.98
2023-04-13T07:25:58.677Z,16.08
2023-04-13T07:28:26.068Z,15.18
2023-04-13T07:30:53.121Z,15.63
2023-04-13T07:33:20.003Z,15.27
2023-04-13T07:35:47.288Z,14.65
2023-04-13T07:38:14.522Z,15.30
2023-04-13T07:40:41.588Z,15.35
2023-04-13T07:43:08.476Z,15.02
2023-04-13T07:45:35.364Z,14.48
2023-04-13T07:48:02.368Z,14.20
2023-04-13T07:50:29.433Z,14.50
2023-04-13T07:52:56.406Z,14.30
2023-04-13T07:55:23.293Z,15.55
2023-04-13T07:57:50.180Z,14.38
2023-04-13T08:00:20.459Z,15.18
2023-04-13T08:02:47.798Z,14.85
2023-04-13T08:05:15.227Z,13.73
2023-04-13T08:07:42.182Z,13.30
2023-04-13T08:10:09.690Z,15.85
2023-04-13T08:12:39.089Z,12.07
2023-04-13T08:15:06.512Z,12.35
2023-04-13T08:17:34.053Z,11.40
2023-04-13T08:20:06.223Z,11.52
2023-04-13T08:22:33.044Z,12.55
2023-04-13T08:24:59.889Z,11.45
2023-04-13T08:27:26.802Z,11.55
2023-04-13T08:30:00.793Z,13.15
2023-04-13T08:32:28.444Z,11.77
2023-04-13T08:34:56.415Z,8.05
2023-04-13T08:37:24.669Z,8.75
2023-04-13T08:39:56.657Z,9.48
2023-04-13T08:42:26.885Z,9.30
2023-04-13T08:45:04.071Z,9.65
2023-04-13T08:47:31.218Z,9.60
2023-04-13T08:49:59.621Z,10.77
2023-04-13T08:52:28.406Z,9.95
2023-04-13T08:54:58.361Z,10.18
2023-04-13T08:57:25.362Z,11.73
2023-04-13T08:59:53.064Z,11.60
2023-04-13T09:02:26.505Z,10.65
2023-04-13T09:04:55.065Z,9.82
2023-04-13T09:07:30.128Z,10.60
2023-04-13T09:09:58.502Z,10.70
2023-04-13T09:12:29.254Z,9.90
2023-04-13T09:14:56.358Z,10.93
2023-04-13T09:17:28.249Z,11.98
2023-04-13T09:20:16.678Z,12.40
2023-04-13T09:22:46.754Z,11.23
2023-04-13T09:25:25.305Z,13.10
2023-04-13T09:27:53.107Z,11.23
2023-04-13T09:30:21.690Z,11.43
2023-04-13T09:32:49.012Z,11.98
2023-04-13T09:35:16.231Z,13.27
2023-04-13T09:37:45.076Z,12.23
2023-04-13T09:40:16.611Z,12.23
2023-04-13T09:42:58.369Z,11.90
2023-04-13T09:45:32.994Z,12.80
2023-04-13T09:48:02.782Z,11.60
2023-04-13T09:50:32.286Z,11.60
2023-04-13T09:53:11.533Z,11.60
2023-04-13T09:55:39.232Z,12.02
2023-04-13T09:58:13.934Z,12.48
2023-04-13T10:00:42.523Z,11.88
2023-04-13T10:03:13.726Z,10.73
2023-04-13T10:05:58.086Z,10.27
2023-04-13T10:08:37.390Z,10.45
2023-04-13T10:11:12.803Z,10.27
2023-04-13T10:13:58.202Z,10.73
2023-04-13T10:16:54.066Z,11.43
2023-04-13T10:19:27.526Z,11.45
2023-04-13T10:21:58.718Z,10.88
2023-04-13T10:24:26.173Z,11.93
2023-04-13T10:26:55.446Z,9.70
2023-04-13T10:29:30.556Z,9.30
2023-04-13T10:32:03.965Z,9.15
2023-04-13T10:34:35.929Z,9.15
2023-04-13T10:37:04.249Z,9.32
2023-04-13T10:39:33.619Z,8.45
2023-04-13T10:42:06.476Z,7.70
2023-04-13T10:44:50.196Z,8.43
2023-04-13T10:47:20.516Z,8.65
2023-04-13T10:49:49.417Z,8.43
2023-04-13T10:52:17.024Z,8.32
2023-04-13T10:54:45.249Z,9.98
2023-04-13T10:57:13.614Z,8.95
2023-04-13T10:59:55.523Z,8.85
2023-04-13T11:02:32.462Z,8.90
2023-04-13T11:05:01.408Z,8.95
2023-04-13T11:07:28.939Z,8.65
2023-04-13T11:12:28.876Z,7.93
2023-04-13T11:14:55.990Z,7.63
2023-04-13T11:17:23.399Z,8.30
2023-04-13T11:19:52.196Z,7.25
2023-04-13T11:22:22.700Z,7.65
2023-04-13T11:24:51.107Z,8.25
2023-04-13T11:27:21.771Z,9.43
2023-04-13T11:30:05.879Z,8.85
2023-04-13T11:32:34.511Z,9.55
2023-04-13T11:35:14.154Z,9.73
2023-04-13T11:37:44.781Z,9.95
2023-04-13T11:40:17.897Z,9.65
2023-04-13T11:42:50.510Z,10.75
2023-04-13T11:45:20.488Z,9.98
2023-04-13T11:47:50.910Z,10.27
2023-04-13T11:50:38.874Z,9.85
2023-04-13T11:53:06.074Z,8.77
2023-04-13T11:55:49.817Z,8.70
2023-04-13T11:58:21.332Z,8.55
2023-04-13T12:00:49.197Z,8.25
2023-04-13T12:05:50.034Z,8.93
2023-04-13T12:08:22.774Z,8.68
2023-04-13T12:11:30.294Z,8.60
2023-04-13T12:13:59.862Z,8.07
2023-04-13T12:19:14.025Z,9.65
2023-04-13T12:21:57.355Z,10.25
2023-04-13T12:24:33.112Z,9.98
2023-04-13T12:29:40.692Z,11.00
2023-04-13T12:32:14.411Z,11.63
2023-04-13T12:34:42.691Z,11.52
2023-04-13T12:37:11.651Z,12.27
2023-04-13T12:39:38.973Z,11.48
2023-04-13T12:42:06.334Z,11.65
2023-04-13T12:44:34.417Z,13.25
2023-04-13T12:47:02.278Z,13.13
2023-04-13T12:49:30.275Z,11.93
2023-04-13T12:51:57.389Z,11.30
2023-04-13T12:54:24.675Z,10.30
2023-04-13T12:56:52.340Z,10.38
2023-04-13T12:59:22.259Z,9.10
2023-04-13T13:01:49.815Z,9.75
2023-04-13T13:04:19.889Z,10.15
2023-04-13T13:06:47.805Z,10.40
2023-04-13T13:09:15.686Z,10.05
2023-04-13T13:11:43.482Z,8.88
2023-04-13T13:14:11.406Z,10.65
2023-04-13T13:16:38.815Z,9.63
2023-04-13T13:19:06.377Z,9.30
2023-04-13T13:21:34.336Z,10.27
2023-04-13T13:24:04.695Z,9.75
2023-04-13T13:26:44.889Z,10.50
2023-04-13T13:29:19.502Z,9.60
2023-04-13T13:31:46.964Z,10.30
2023-04-13T13:34:14.046Z,10.32
2023-04-13T13:36:41.158Z,10.55
2023-04-13T13:39:08.174Z,9.98
2023-04-13T13:41:35.246Z,10.40
2023-04-13T13:44:02.242Z,9.55
2023-04-13T13:46:29.379Z,10.13
2023-04-13T13:48:56.449Z,9.75
2023-04-13T13:51:23.446Z,9.82
2023-04-13T13:53:50.987Z,10.13
2023-04-13T13:56:18.284Z,10.30
2023-04-13T13:58:47.729Z,10.38
2023-04-13T14:01:14.875Z,10.07
2023-04-13T14:03:42.043Z,10.65
2023-04-13T14:06:09.415Z,10.27
2023-04-13T14:08:36.591Z,10.52
2023-04-13T14:11:04.248Z,10.15
2023-04-13T14:13:31.444Z,10.13
2023-04-13T14:15:58.480Z,10.23
2023-04-13T14:18:26.001Z,8.85
2023-04-13T14:20:53.433Z,10.75
2023-04-13T14:23:20.478Z,10.32
2023-04-13T14:25:47.406Z,11.02
2023-04-13T14:28:14.780Z,9.65
2023-04-13T14:30:41.956Z,10.10
2023-04-13T14:33:09.298Z,9.93
2023-04-13T14:35:38.795Z,11.85
2023-04-13T14:38:06.156Z,10.93
2023-04-13T14:40:33.745Z,11.07
2023-04-13T14:43:03.406Z,11.10
2023-04-13T14:45:30.578Z,10.95
2023-04-13T14:47:57.809Z,10.98
2023-04-13T14:50:25.059Z,11.57
2023-04-13T14:52:52.486Z,10.23
2023-04-13T14:55:19.853Z,10.43
2023-04-13T14:57:47.334Z,10.43
2023-04-13T15:00:18.249Z,10.30
2023-04-13T15:02:46.025Z,10.75
2023-04-13T15:05:13.389Z,11.38
2023-04-13T15:07:41.051Z,11.35
2023-04-13T15:10:08.667Z,10.85
2023-04-13T15:12:35.778Z,11.63
2023-04-13T15:15:02.846Z,10.48
2023-04-13T15:17:30.001Z,10.73
2023-04-13T15:19:57.204Z,10.60
2023-04-13T15:22:24.582Z,9.63
2023-04-13T15:24:51.632Z,9.43
2023-04-13T15:27:18.630Z,9.38
2023-04-13T15:29:45.744Z,9.93
2023-04-13T15:32:47.823Z,9.57
2023-04-13T15:35:15.423Z,9.50
2023-04-13T15:37:44.880Z,9.90
2023-04-13T15:40:12.254Z,8.48
2023-04-13T15:42:40.072Z,8.70
2023-04-13T15:45:09.557Z,8.93
2023-04-13T15:47:37.279Z,7.88
2023-04-13T15:50:05.014Z,7.68
2023-04-13T15:52:33.319Z,6.60
2023-04-13T15:55:00.538Z,6.45
2023-04-13T15:57:28.057Z,6.60
2023-04-13T15:59:56.895Z,6.72
2023-04-13T16:02:24.036Z,7.90
2023-04-13T16:04:54.095Z,7.20
2023-04-13T16:07:23.763Z,6.65
2023-04-13T16:09:56.278Z,6.95
2023-04-13T16:12:26.722Z,6.93
2023-04-13T16:14:59.681Z,6.60
2023-04-13T16:17:33.508Z,6.80
2023-04-13T16:20:25.946Z,6.85
2023-04-13T16:22:54.862Z,6.00
2023-04-13T16:25:22.344Z,6.72
2023-04-13T16:27:49.421Z,6.35
2023-04-13T16:30:17.994Z,6.43
2023-04-13T16:32:46.519Z,6.18
2023-04-13T16:35:13.843Z,6.00
2023-04-13T16:37:42.506Z,6.30
2023-04-13T16:40:13.187Z,7.15
2023-04-13T16:42:40.859Z,6.32
2023-04-13T16:45:11.616Z,8.23
2023-04-13T16:47:43.160Z,6.28
2023-04-13T16:50:11.222Z,7.28
2023-04-13T16:52:40.925Z,6.55
2023-04-13T16:55:09.178Z,5.85
2023-04-13T16:57:36.423Z,5.82
2023-04-13T17:00:09.405Z,6.15
2023-04-13T17:02:39.242Z,5.53
2023-04-13T17:05:10.591Z,5.80
2023-04-13T17:07:39.006Z,5.90
2023-04-13T17:10:07.800Z,5.80
2023-04-13T17:12:35.653Z,6.38
2023-04-13T17:15:02.642Z,6.28
2023-04-13T17:17:29.702Z,6.35
2023-04-13T17:19:56.897Z,6.45
2023-04-13T17:22:23.947Z,5.15
2023-04-13T17:24:50.966Z,6.43
2023-04-13T17:27:20.162Z,6.15
2023-04-13T17:29:49.997Z,6.45
2023-04-13T17:32:19.150Z,6.28
2023-04-13T17:34:46.607Z,5.65
2023-04-13T17:37:13.706Z,5.75
2023-04-13T17:39:47.761Z,6.30
2023-04-13T17:42:15.387Z,6.35
2023-04-13T17:44:43.316Z,6.10
2023-04-13T17:47:10.503Z,6.20
2023-04-13T17:49:38.560Z,6.07
2023-04-13T17:52:05.712Z,6.10
2023-04-13T17:54:33.225Z,6.45
2023-04-13T17:57:01.332Z,5.97
2023-04-13T17:59:28.653Z,5.35
2023-04-13T18:01:56.344Z,6.25
2023-04-13T18:04:23.662Z,5.95
2023-04-13T18:06:50.836Z,6.20
2023-04-13T18:09:19.011Z,6.05
2023-04-13T18:11:46.167Z,5.95
2023-04-13T18:14:15.287Z,6.00
2023-04-13T18:16:44.106Z,5.90
2023-04-13T18:19:11.555Z,6.40
2023-04-13T18:21:38.817Z,12.18
2023-04-13T18:24:09.068Z,12.75
2023-04-13T18:26:35.996Z,15.45
2023-04-13T18:29:05.562Z,15.77
2023-04-13T18:31:32.651Z,17.27
2023-04-13T18:33:59.923Z,17.00
2023-04-13T18:36:27.078Z,15.55
2023-04-13T18:38:55.043Z,14.75
2023-04-13T18:44:04.450Z,15.10
2023-04-13T18:46:31.576Z,15.70
2023-04-13T18:48:58.749Z,16.05
2023-04-13T18:51:27.593Z,15.88
2023-04-13T18:53:55.044Z,14.75
2023-04-13T18:56:22.013Z,13.88
2023-04-13T18:58:49.141Z,14.57
2023-04-13T19:01:20.084Z,13.85
2023-04-13T19:03:47.498Z,14.18
2023-04-13T19:06:17.181Z,13.10
2023-04-13T19:08:44.807Z,14.70
2023-04-13T19:11:12.705Z,13.68
2023-04-13T19:13:40.664Z,13.63
2023-04-13T19:16:08.313Z,13.90
2023-04-13T19:18:36.389Z,13.68
2023-04-13T19:21:08.241Z,13.07
2023-04-13T19:23:40.560Z,12.80
2023-04-13T19:26:08.673Z,13.55
2023-04-13T19:28:36.330Z,13.32
2023-04-13T19:31:04.118Z,13.02
2023-04-13T19:33:33.628Z,13.43
2023-04-13T19:36:16.796Z,12.68
2023-04-13T19:38:45.682Z,13.00
2023-04-13T19:41:14.058Z,13.20
2023-04-13T19:43:59.669Z,14.10
2023-04-13T19:46:28.484Z,13.13
2023-04-13T19:49:03.480Z,14.23
2023-04-13T19:51:34.282Z,13.45
2023-04-13T19:54:03.403Z,13.52
2023-04-13T19:56:31.349Z,15.05
2023-04-13T19:59:01.021Z,16.08
2023-04-13T20:01:40.939Z,14.57
2023-04-13T20:04:12.528Z,14.30
2023-04-13T20:06:47.036Z,15.52
2023-04-13T20:09:21.529Z,15.80
2023-04-13T20:11:53.899Z,14.00
2023-04-13T20:14:45.334Z,14.52
2023-04-13T20:21:14.613Z,15.52
2023-04-13T20:23:47.566Z,14.80
2023-04-13T20:26:28.208Z,14.73
2023-04-13T20:29:20.075Z,14.02
2023-04-13T20:32:09.295Z,14.70
2023-04-13T20:35:01.279Z,14.13
2023-04-13T20:37:29.348Z,16.63
2023-04-13T20:39:57.678Z,15.27
2023-04-13T20:42:27.849Z,16.67
2023-04-13T20:45:00.991Z,16.15
2023-04-13T20:51:04.098Z,19.10
2023-04-13T20:53:41.503Z,20.02
2023-04-13T21:01:36.964Z,24.70
2023-04-13T21:07:20.313Z,31.38
2023-04-13T21:09:48.296Z,31.85
2023-04-13T21:12:17.677Z,30.80
2023-04-13T21:17:15.317Z,29.33
2023-04-13T21:19:42.617Z,30.27
2023-04-13T21:22:10.080Z,29.80
2023-04-13T21:24:37.341Z,29.90
2023-04-13T21:34:05.835Z,27.25
2023-04-13T21:43:29.300Z,23.00
2023-04-13T21:54:00.829Z,22.63
2023-04-13T21:56:38.668Z,23.30
2023-04-13T21:59:07.208Z,21.35
2023-04-13T22:01:34.967Z,22.27
2023-04-13T22:04:02.365Z,23.90
2023-04-13T22:06:30.241Z,21.88
2023-04-13T22:08:57.475Z,22.63
2023-04-13T22:11:24.702Z,22.60
2023-04-13T22:13:51.985Z,22.85
2023-04-13T22:16:19.619Z,21.38
2023-04-13T22:18:47.354Z,20.98
2023-04-13T22:21:14.532Z,26.00
2023-04-13T22:23:41.573Z,25.42
2023-04-13T22:26:11.265Z,21.73
2023-04-13T22:28:38.601Z,22.23
2023-04-13T22:32:39.497Z,22.20
2023-04-13T22:38:56.601Z,21.63
2023-04-13T22:53:23.723Z,22.42
2023-04-13T23:03:08.383Z,23.10
2023-04-13T23:05:35.805Z,25.80
2023-04-13T23:09:29.107Z,25.08
2023-04-13T23:22:46.906Z,23.35
2023-04-13T23:26:19.760Z,23.45
2023-04-13T23:29:00.269Z,22.10
2023-04-13T23:31:49.815Z,22.52
2023-04-13T23:35:02.166Z,24.55
2023-04-13T23:41:33.728Z,22.27
2023-04-13T23:44:00.900Z,24.50
2023-04-13T23:46:28.910Z,24.75
2023-04-13T23:49:46.204Z,24.27
2023-04-13T23:52:29.014Z,22.42
2023-04-13T23:54:56.404Z,23.83
2023-04-13T23:57:23.696Z,23.60
2023-04-13T23:59:56.877Z,23.42
